Time;durP1;ratioP1;P1;durP2;ratioP2;P2;SDS_P1;SDS_P2;PMS_P1;PMS_P2;Temp;Humidity;BMP_temperature;BMP_pressure;BME280_temperature;BME280_humidity;BME280_pressure;Samples;Min_cycle;Max_cycle;Signal;HPM_P1;HPM_P2
2022/02/01 00:00:23;;;;;;;1.58;0.63;;;3.90;99.90;;;;;;10380714;28;20068;-59
2022/02/01 00:16:37;;;;;;;1.33;0.68;;;4.00;99.90;;;;;;10328583;28;20044;-60
2022/02/01 00:37:49;;;;;;;2.75;0.85;;;4.10;99.90;;;;;;10384358;28;20148;-61
2022/02/01 00:42:50;;;;;;;3.28;0.73;;;4.10;99.90;;;;;;10382308;28;20049;-59
2022/02/01 00:47:52;;;;;;;2.95;0.50;;;4.20;99.90;;;;;;10382906;28;20130;-61
2022/02/01 00:52:54;;;;;;;0.88;0.40;;;4.30;99.90;;;;;;10388043;28;20080;-60
2022/02/01 00:57:56;;;;;;;0.30;0.30;;;4.30;99.90;;;;;;10389132;28;20045;-63
2022/02/01 01:02:57;;;;;;;2.22;0.30;;;4.40;99.90;;;;;;10384079;28;20083;-63
2022/02/01 01:07:59;;;;;;;0.75;0.20;;;4.40;99.90;;;;;;10383794;28;20065;-62
2022/02/01 01:13:20;;;;;;;0.13;0.10;;;4.40;99.90;;;;;;10385009;28;20124;-62
2022/02/01 01:18:51;;;;;;;3.72;0.30;;;4.30;99.90;;;;;;10385038;28;20133;-63
2022/02/01 01:45:15;;;;;;;4.43;0.40;;;4.40;99.90;;;;;;10382890;28;20124;-62
2022/02/01 01:55:48;;;;;;;3.97;0.80;;;4.50;99.90;;;;;;10383347;28;20532;-62
2022/02/01 02:06:01;;;;;;;18.55;1.48;;;4.40;99.90;;;;;;10382747;28;20128;-62
2022/02/01 02:11:11;;;;;;;13.05;1.13;;;4.40;99.90;;;;;;10384355;28;20111;-63
2022/02/01 02:16:13;;;;;;;19.30;2.08;;;4.30;99.90;;;;;;10378622;28;20081;-62
2022/02/01 02:21:17;;;;;;;10.05;1.52;;;4.30;99.90;;;;;;10386665;28;20081;-62
2022/02/01 02:26:18;;;;;;;11.02;1.00;;;4.30;99.90;;;;;;10387813;28;20045;-63
2022/02/01 02:31:22;;;;;;;19.17;1.80;;;4.30;99.50;;;;;;10380848;28;20172;-63
2022/02/01 02:36:24;;;;;;;5.95;0.47;;;4.30;97.60;;;;;;10382330;28;20057;-63
2022/02/01 02:41:35;;;;;;;12.10;2.95;;;4.30;97.30;;;;;;10380237;28;20061;-62
2022/02/01 02:46:38;;;;;;;11.15;1.77;;;4.20;98.50;;;;;;10380778;28;20098;-62
2022/02/01 02:51:41;;;;;;;9.93;0.60;;;4.20;95.70;;;;;;10380074;28;20169;-63
2022/02/01 02:56:48;;;;;;;13.18;1.65;;;4.20;96.90;;;;;;10382880;28;20103;-63
2022/02/01 03:01:51;;;;;;;8.88;0.85;;;4.10;96.40;;;;;;10381579;28;20081;-63
2022/02/01 03:06:54;;;;;;;9.82;1.65;;;4.10;96.30;;;;;;10375429;28;20506;-62
2022/02/01 03:11:58;;;;;;;10.70;1.10;;;4.00;97.70;;;;;;10378364;28;20144;-62
2022/02/01 03:17:13;;;;;;;16.98;1.10;;;4.00;96.50;;;;;;10377613;28;20065;-63
2022/02/01 03:22:16;;;;;;;11.02;1.08;;;4.00;95.90;;;;;;10374513;28;20111;-63
2022/02/01 03:27:18;;;;;;;9.77;1.42;;;3.90;96.80;;;;;;10379613;28;20053;-63
2022/02/01 03:32:21;;;;;;;12.52;1.08;;;3.80;96.80;;;;;;10376106;28;20140;-63
2022/02/01 03:37:23;;;;;;;14.95;2.45;;;3.80;96.00;;;;;;10378300;28;20056;-63
2022/02/01 03:42:26;;;;;;;13.68;1.80;;;3.70;96.70;;;;;;10372924;28;20403;-62
2022/02/01 03:47:31;;;;;;;11.55;1.52;;;3.80;95.50;;;;;;10379178;28;20589;-62
2022/02/01 03:52:34;;;;;;;18.08;2.25;;;3.70;96.80;;;;;;10376897;28;20119;-61
2022/02/01 03:57:35;;;;;;;5.65;1.75;;;3.70;97.50;;;;;;10377707;28;20053;-62
2022/02/01 04:02:37;;;;;;;6.93;2.08;;;3.70;98.20;;;;;;10380028;28;20594;-60
2022/02/01 04:07:45;;;;;;;11.82;1.00;;;3.70;97.70;;;;;;10377385;28;20397;-60
2022/02/01 04:12:50;;;;;;;12.45;1.60;;;3.60;99.10;;;;;;10379913;28;20049;-60
2022/02/01 04:17:53;;;;;;;5.93;1.08;;;3.60;99.30;;;;;;10374974;28;20049;-60
2022/02/01 04:22:55;;;;;;;5.03;1.73;;;3.70;99.10;;;;;;10376915;28;20145;-60
2022/02/01 04:27:56;;;;;;;14.48;1.30;;;3.70;99.30;;;;;;10382988;28;20069;-60
2022/02/01 04:32:58;;;;;;;5.38;1.13;;;3.70;99.90;;;;;;10381523;28;20518;-60
2022/02/01 04:38:00;;;;;;;7.88;1.08;;;3.70;99.90;;;;;;10383324;28;20089;-60
2022/02/01 04:43:05;;;;;;;12.85;0.95;;;3.70;99.90;;;;;;10384777;28;20539;-61
2022/02/01 04:48:06;;;;;;;5.97;1.05;;;3.70;99.90;;;;;;10382978;28;20381;-60
2022/02/01 04:53:08;;;;;;;8.23;1.40;;;3.60;99.90;;;;;;10398013;28;20069;-59
2022/02/01 04:58:10;;;;;;;10.63;0.80;;;3.60;99.90;;;;;;10380306;28;20116;-60
2022/02/01 05:03:11;;;;;;;10.45;1.15;;;3.40;99.90;;;;;;10384861;28;20123;-60
2022/02/01 05:08:14;;;;;;;7.70;1.17;;;3.40;99.90;;;;;;10382290;28;20057;-59
2022/02/01 05:18:48;;;;;;;14.80;1.23;;;3.30;99.90;;;;;;10386060;28;20057;-60
2022/02/01 05:23:52;;;;;;;8.02;1.08;;;3.30;99.90;;;;;;10379801;28;20045;-60
2022/02/01 05:28:54;;;;;;;6.22;1.52;;;3.30;99.90;;;;;;10382222;28;20041;-60
2022/02/01 05:33:55;;;;;;;5.72;1.20;;;3.30;99.90;;;;;;10383051;28;20464;-60
2022/02/01 05:38:57;;;;;;;9.32;1.25;;;3.40;99.90;;;;;;10382167;28;20499;-60
2022/02/01 05:43:59;;;;;;;8.15;1.45;;;3.40;99.90;;;;;;10384778;28;20131;-60
2022/02/01 05:49:05;;;;;;;3.78;0.75;;;3.40;99.90;;;;;;10385979;28;20044;-61
2022/02/01 05:54:06;;;;;;;3.20;0.75;;;3.30;99.90;;;;;;10383618;28;20057;-61
2022/02/01 05:59:08;;;;;;;3.38;0.82;;;3.30;99.90;;;;;;10375106;28;20140;-62
2022/02/01 06:04:10;;;;;;;7.72;1.10;;;3.30;99.90;;;;;;10380837;28;20333;-60
2022/02/01 06:09:11;;;;;;;4.90;1.30;;;3.40;99.90;;;;;;10384765;28;20072;-60
2022/02/01 06:14:13;;;;;;;6.75;1.38;;;3.50;99.90;;;;;;10382205;28;20065;-61
2022/02/01 06:19:15;;;;;;;6.22;0.80;;;3.50;99.90;;;;;;10383015;28;20041;-59
2022/02/01 06:24:19;;;;;;;6.60;1.73;;;3.60;99.90;;;;;;10373797;28;20127;-60
2022/02/01 06:29:21;;;;;;;6.80;0.65;;;3.60;99.90;;;;;;10377348;28;20164;-60
2022/02/01 06:34:23;;;;;;;5.07;0.88;;;3.70;99.90;;;;;;10382196;28;20099;-60
2022/02/01 06:39:27;;;;;;;6.90;0.90;;;3.70;99.90;;;;;;10377664;28;20076;-60
2022/02/01 06:44:28;;;;;;;6.30;0.77;;;3.70;99.90;;;;;;10378492;28;20072;-60
2022/02/01 06:49:30;;;;;;;6.68;0.50;;;3.80;99.90;;;;;;10373941;28;20191;-60
2022/02/01 06:54:33;;;;;;;6.72;0.60;;;3.80;99.90;;;;;;10379330;28;20081;-62
2022/02/01 06:59:35;;;;;;;8.07;0.80;;;3.80;99.90;;;;;;10376003;28;20052;-65
2022/02/01 07:04:36;;;;;;;7.72;0.88;;;3.80;99.90;;;;;;10380272;28;20073;-65
2022/02/01 07:09:39;;;;;;;5.03;0.47;;;3.80;99.90;;;;;;10378766;28;20550;-63
2022/02/01 07:14:41;;;;;;;9.27;0.52;;;3.80;99.90;;;;;;10373156;28;20624;-63
2022/02/01 07:19:43;;;;;;;10.80;0.93;;;3.80;99.90;;;;;;10378915;28;20053;-63
2022/02/01 07:25:00;;;;;;;4.70;0.40;;;3.80;99.90;;;;;;10380193;28;20053;-63
2022/02/01 07:30:02;;;;;;;9.53;0.80;;;3.80;99.90;;;;;;10371833;28;20049;-63
2022/02/01 07:35:05;;;;;;;8.98;0.50;;;3.80;99.90;;;;;;10379204;28;20079;-63
2022/02/01 07:40:09;;;;;;;10.35;0.70;;;3.80;99.90;;;;;;10379868;28;20065;-65
2022/02/01 07:45:14;;;;;;;3.50;0.52;;;3.80;99.90;;;;;;10375835;28;20053;-64
2022/02/01 07:50:16;;;;;;;5.88;0.40;;;3.80;99.90;;;;;;10394611;28;20045;-64
2022/02/01 07:55:18;;;;;;;5.18;1.45;;;3.80;99.90;;;;;;10383585;28;20562;-64
2022/02/01 08:00:20;;;;;;;4.68;0.38;;;3.80;99.90;;;;;;10382461;28;20152;-64
2022/02/01 08:05:25;;;;;;;6.90;0.70;;;3.80;99.90;;;;;;10386064;28;20037;-64
2022/02/01 08:10:33;;;;;;;8.48;0.40;;;3.90;99.90;;;;;;10389420;28;20080;-64
2022/02/01 08:21:04;;;;;;;6.55;0.60;;;3.90;99.90;;;;;;10388564;28;20068;-64
2022/02/01 08:26:06;;;;;;;7.72;1.00;;;3.90;99.90;;;;;;10384783;28;20053;-63
2022/02/01 08:31:09;;;;;;;5.25;0.40;;;3.90;99.90;;;;;;10386336;28;20099;-63
2022/02/01 08:36:11;;;;;;;8.15;0.70;;;3.90;99.90;;;;;;10383320;28;20304;-63
2022/02/01 08:41:12;;;;;;;7.15;0.40;;;4.00;99.90;;;;;;10380998;28;20049;-64
2022/02/01 08:46:15;;;;;;;4.15;0.47;;;4.00;99.90;;;;;;10385786;28;20061;-64
2022/02/01 08:51:19;;;;;;;5.55;0.50;;;4.00;99.90;;;;;;10359020;28;20045;-64
2022/02/01 09:02:00;;;;;;;5.53;1.00;;;4.00;99.90;;;;;;10380145;28;20041;-64
2022/02/01 09:13:24;;;;;;;5.25;0.82;;;4.10;99.90;;;;;;8274301;28;20056;-64
2022/02/01 09:18:26;;;;;;;5.60;0.55;;;4.20;99.90;;;;;;10384486;28;20172;-65
2022/02/01 09:23:28;;;;;;;3.33;0.50;;;4.20;99.90;;;;;;10388588;28;20140;-65
2022/02/01 09:28:29;;;;;;;6.55;0.63;;;4.20;99.90;;;;;;10383707;28;20045;-65
2022/02/01 09:33:31;;;;;;;4.28;0.80;;;4.30;99.90;;;;;;10382415;28;20435;-65
2022/02/01 09:38:34;;;;;;;5.07;0.70;;;4.30;99.90;;;;;;10382810;28;20081;-65
2022/02/01 09:43:36;;;;;;;6.32;1.30;;;4.40;99.90;;;;;;10384435;28;20128;-65
2022/02/01 09:48:38;;;;;;;7.53;1.75;;;4.40;99.90;;;;;;10380361;28;20052;-65
2022/02/01 09:53:40;;;;;;;7.10;1.20;;;4.40;99.90;;;;;;10379619;28;20073;-64
2022/02/01 09:58:44;;;;;;;9.20;1.42;;;4.50;99.90;;;;;;10384492;28;20131;-65
2022/02/01 10:03:58;;;;;;;5.85;3.88;;;4.50;99.90;;;;;;9906812;28;20418;-65
2022/02/01 10:09:15;;;;;;;5.88;0.80;;;4.40;99.90;;;;;;10379906;28;20050;-64
2022/02/01 10:14:30;;;;;;;3.67;0.88;;;4.50;99.90;;;;;;10383298;28;20061;-65
2022/02/01 10:19:32;;;;;;;6.22;0.77;;;4.50;99.90;;;;;;10380681;28;20683;-64
2022/02/01 10:24:37;;;;;;;9.68;0.60;;;4.60;99.90;;;;;;10376129;28;20076;-64
2022/02/01 10:40:42;;;;;;;5.25;0.55;;;4.80;99.90;;;;;;10377986;28;20053;-64
2022/02/01 10:46:14;;;;;;;5.05;0.77;;;4.80;99.90;;;;;;10372720;28;20050;-64
2022/02/01 10:51:21;;;;;;;4.40;0.70;;;4.70;99.90;;;;;;10374612;28;20048;-64
2022/02/01 10:56:24;;;;;;;4.15;0.65;;;4.80;99.90;;;;;;10374918;28;20053;-64
2022/02/01 11:01:26;;;;;;;5.75;0.70;;;4.70;99.90;;;;;;10377543;28;20076;-64
2022/02/01 11:06:30;;;;;;;3.58;0.75;;;4.50;99.90;;;;;;10380598;28;20472;-64
2022/02/01 11:11:31;;;;;;;5.80;0.90;;;4.30;99.90;;;;;;10378057;28;20089;-64
2022/02/01 11:16:33;;;;;;;5.28;0.70;;;4.10;99.90;;;;;;10376929;28;20046;-65
2022/02/01 11:21:50;;;;;;;3.33;0.50;;;4.10;99.90;;;;;;10378705;28;20052;-64
2022/02/01 11:27:14;;;;;;;5.90;1.30;;;3.80;99.90;;;;;;10370905;28;20511;-65
2022/02/01 11:32:19;;;;;;;7.70;0.82;;;3.80;99.90;;;;;;10369918;28;20476;-65
2022/02/01 11:37:49;;;;;;;6.88;1.00;;;3.70;99.90;;;;;;10388002;28;20052;-65
2022/02/01 11:43:01;;;;;;;5.78;1.02;;;3.70;99.90;;;;;;10385868;28;20049;-65
2022/02/01 11:48:14;;;;;;;4.88;1.08;;;3.70;99.90;;;;;;10387412;28;20072;-66
2022/02/01 11:53:36;;;;;;;8.35;1.05;;;3.60;99.90;;;;;;10387295;28;20056;-65
2022/02/01 11:58:46;;;;;;;6.05;0.88;;;3.60;99.90;;;;;;10384604;28;20064;-65
2022/02/01 12:04:02;;;;;;;4.22;0.88;;;3.50;99.90;;;;;;10396770;28;20046;-65
2022/02/01 12:09:11;;;;;;;7.55;0.98;;;3.60;99.90;;;;;;10387203;28;20057;-65
2022/02/01 12:14:13;;;;;;;5.55;0.70;;;3.60;99.90;;;;;;10379485;28;20486;-65
2022/02/01 12:19:36;;;;;;;11.15;1.92;;;3.60;99.90;;;;;;10393071;28;20107;-66
2022/02/01 12:25:07;;;;;;;7.82;1.67;;;3.60;99.90;;;;;;10381510;28;21177;-64
2022/02/01 12:30:10;;;;;;;9.25;1.77;;;3.60;99.90;;;;;;10385698;28;20132;-64
2022/02/01 12:35:12;;;;;;;4.30;1.08;;;3.70;99.90;;;;;;10387768;28;20057;-64
2022/02/01 12:40:14;;;;;;;4.50;1.35;;;3.60;99.90;;;;;;10385287;28;20089;-64
2022/02/01 12:50:36;;;;;;;3.15;1.13;;;3.70;99.90;;;;;;10383471;28;20133;-64
2022/02/01 12:55:40;;;;;;;1.35;0.88;;;3.70;99.90;;;;;;10384535;28;20069;-64
2022/02/01 13:00:51;;;;;;;6.78;0.95;;;3.70;99.90;;;;;;10378010;28;20444;-63
2022/02/01 13:05:56;;;;;;;;;;;3.60;99.90;;;;;;10383876;28;20141;-62
2022/02/01 13:21:24;;;;;;;4.22;1.23;;;3.60;99.90;;;;;;10381319;28;20041;-62
2022/02/01 13:26:33;;;;;;;3.10;0.90;;;3.60;99.90;;;;;;10382046;28;20061;-61
2022/02/01 13:31:50;;;;;;;2.80;1.00;;;3.70;99.90;;;;;;10380782;28;20049;-62
2022/02/01 13:36:56;;;;;;;2.20;0.70;;;3.70;99.90;;;;;;10376039;28;20053;-63
2022/02/01 13:42:11;;;;;;;0.95;0.70;;;3.70;99.90;;;;;;10379417;28;20069;-62
2022/02/01 13:47:41;;;;;;;2.78;0.82;;;3.80;99.90;;;;;;10382556;28;20465;-59
2022/02/01 13:52:43;;;;;;;2.22;0.70;;;3.70;99.90;;;;;;10370617;28;20446;-59
2022/02/01 13:57:44;;;;;;;1.35;0.90;;;3.70;99.90;;;;;;10359455;28;20119;-61
2022/02/01 14:02:50;;;;;;;4.15;0.85;;;3.70;99.90;;;;;;10386254;28;20045;-61
2022/02/01 14:08:06;;;;;;;0.85;0.50;;;3.70;99.90;;;;;;10377149;28;20056;-61
2022/02/01 14:34:26;;;;;;;0.70;0.60;;;3.70;99.90;;;;;;10379082;28;20143;-62
2022/02/01 14:49:36;;;;;;;1.20;0.60;;;3.70;99.90;;;;;;10378474;28;20789;-62
2022/02/01 15:15:50;;;;;;;2.05;0.93;;;3.80;99.90;;;;;;10380575;28;20115;-62
2022/02/01 15:20:52;;;;;;;2.13;0.85;;;3.80;99.90;;;;;;10378206;28;20056;-62
2022/02/01 15:25:54;;;;;;;1.38;1.02;;;3.80;99.90;;;;;;10380374;28;20127;-61
2022/02/01 15:30:56;;;;;;;2.60;1.20;;;3.80;99.90;;;;;;10373786;28;20081;-62
2022/02/01 15:36:02;;;;;;;2.90;1.15;;;3.80;99.90;;;;;;10374352;28;20130;-62
2022/02/01 15:57:19;;;;;;;16.48;1.10;;;3.90;99.90;;;;;;10374820;28;20140;-63
2022/02/01 16:02:21;;;;;;;1.30;0.80;;;4.00;99.90;;;;;;10375374;28;20049;-62
2022/02/01 16:07:25;;;;;;;2.92;0.93;;;4.00;99.90;;;;;;10381532;28;20089;-63
2022/02/01 16:12:52;;;;;;;3.40;1.50;;;4.10;99.90;;;;;;10374902;28;20057;-63
2022/02/01 16:17:53;;;;;;;3.37;1.27;;;4.10;99.90;;;;;;10375075;28;20037;-61
2022/02/01 16:22:55;;;;;;;3.95;0.93;;;4.20;99.90;;;;;;10384470;28;20555;-62
2022/02/01 16:27:57;;;;;;;5.88;1.08;;;4.20;99.90;;;;;;10376861;28;20802;-62
2022/02/01 16:32:58;;;;;;;4.05;1.00;;;4.30;99.90;;;;;;10382182;28;20056;-62
2022/02/01 16:38:00;;;;;;;2.50;1.17;;;4.30;99.90;;;;;;10374328;28;20079;-63
2022/02/01 16:43:22;;;;;;;1.60;0.98;;;4.30;99.90;;;;;;10384014;28;20044;-61
2022/02/01 16:48:23;;;;;;;1.50;0.85;;;4.40;99.90;;;;;;10383347;28;20152;-62
2022/02/01 16:53:33;;;;;;;2.05;0.80;;;4.40;99.90;;;;;;10384171;28;20037;-62
2022/02/01 16:58:45;;;;;;;2.58;0.80;;;4.40;99.90;;;;;;10385331;28;20046;-61
2022/02/01 17:03:47;;;;;;;4.75;0.50;;;4.40;99.90;;;;;;10385002;28;20113;-60
2022/02/01 17:08:49;;;;;;;3.45;0.57;;;4.50;99.90;;;;;;10388631;28;20042;-61
2022/02/01 17:23:56;;;;;;;2.05;0.77;;;4.80;99.90;;;;;;10384535;28;20742;-61
2022/02/01 17:28:58;;;;;;;1.63;0.47;;;4.80;99.90;;;;;;10384967;28;20045;-62
2022/02/01 17:33:59;;;;;;;2.03;0.47;;;4.80;99.90;;;;;;10386263;28;20107;-61
2022/02/01 17:39:03;;;;;;;1.15;0.40;;;4.90;99.90;;;;;;10378593;28;20053;-62
2022/02/01 17:44:07;;;;;;;1.65;0.50;;;5.00;99.90;;;;;;10386713;28;20128;-62
2022/02/01 17:49:13;;;;;;;2.70;0.50;;;5.10;99.90;;;;;;10384523;28;20057;-61
2022/02/01 17:54:21;;;;;;;0.65;0.35;;;5.30;99.90;;;;;;10384349;28;20045;-62
2022/02/01 17:59:25;;;;;;;3.27;0.60;;;5.30;99.90;;;;;;10384549;28;20061;-62
2022/02/01 18:04:26;;;;;;;0.45;0.30;;;5.40;99.90;;;;;;10378064;28;20099;-62
2022/02/01 18:09:28;;;;;;;0.85;0.50;;;5.50;99.90;;;;;;10388140;28;20111;-62
2022/02/01 18:14:56;;;;;;;0.88;0.35;;;5.60;99.90;;;;;;10378266;28;20057;-63
2022/02/01 18:19:55;;;;;;;0.80;0.40;;;5.60;99.90;;;;;;10388240;28;20069;-63
2022/02/01 18:25:00;;;;;;;3.25;0.43;;;5.70;99.90;;;;;;10383356;28;20083;-62
2022/02/01 18:30:07;;;;;;;4.80;0.85;;;5.70;99.90;;;;;;10379924;28;20041;-62
2022/02/01 18:35:09;;;;;;;1.75;0.57;;;5.70;99.90;;;;;;10376179;28;20092;-62
2022/02/01 18:40:12;;;;;;;1.15;0.60;;;5.80;99.90;;;;;;10382634;28;20057;-62
2022/02/01 18:45:16;;;;;;;3.47;1.10;;;5.80;99.90;;;;;;10380640;28;20100;-62
2022/02/01 18:51:12;;;;;;;4.78;0.98;;;6.10;99.90;;;;;;10383560;28;20079;-61
2022/02/01 18:56:12;;;;;;;3.83;1.30;;;6.10;99.90;;;;;;10368179;28;20136;-61
2022/02/01 19:12:23;;;;;;;4.55;0.60;;;7.90;99.90;;;;;;10332066;28;20144;-63
2022/02/01 19:17:25;;;;;;;1.45;0.52;;;7.80;99.90;;;;;;10378554;28;20088;-61
2022/02/01 19:22:32;;;;;;;4.88;0.90;;;7.70;99.90;;;;;;10379541;28;20107;-62
2022/02/01 19:27:37;;;;;;;;;;;7.70;99.90;;;;;;10383420;28;20140;-62
2022/02/01 19:32:40;;;;;;;2.55;1.25;;;7.90;99.90;;;;;;10384249;28;19956;-62
2022/02/01 19:37:43;;;;;;;7.90;1.80;;;7.80;99.90;;;;;;10379986;28;20134;-62
2022/02/01 19:42:57;;;;;;;6.90;1.70;;;8.00;99.90;;;;;;10376857;28;20434;-62
2022/02/01 19:47:59;;;;;;;4.22;1.10;;;8.00;99.90;;;;;;10381637;28;20049;-63
2022/02/01 19:53:05;;;;;;;8.45;1.25;;;8.20;99.90;;;;;;10375293;28;20123;-62
2022/02/01 19:58:11;;;;;;;7.32;1.10;;;8.10;99.90;;;;;;10390377;28;20063;-62
2022/02/01 20:03:16;;;;;;;2.25;0.70;;;8.10;99.90;;;;;;10384589;28;20037;-61
2022/02/01 20:08:17;;;;;;;5.68;1.13;;;8.20;99.90;;;;;;10388096;28;20045;-61
2022/02/01 20:13:21;;;;;;;7.65;1.40;;;8.00;99.90;;;;;;10386938;28;20045;-62
2022/02/01 20:18:23;;;;;;;10.30;1.30;;;8.00;99.90;;;;;;10388449;28;20469;-62
2022/02/01 20:23:25;;;;;;;9.48;2.58;;;7.80;99.90;;;;;;10390454;28;20566;-63
2022/02/01 20:28:27;;;;;;;8.57;1.95;;;7.80;99.90;;;;;;10389373;28;20582;-62
2022/02/01 20:33:30;;;;;;;4.75;1.70;;;7.90;99.90;;;;;;10389430;28;20563;-62
2022/02/01 20:38:38;;;;;;;7.63;1.65;;;7.80;99.90;;;;;;10393630;28;20190;-62
2022/02/01 20:43:42;;;;;;;3.70;1.37;;;7.90;99.90;;;;;;10390755;28;20045;-62
2022/02/01 20:48:44;;;;;;;9.95;1.40;;;7.90;99.90;;;;;;10387080;28;20258;-62
2022/02/01 20:53:47;;;;;;;8.07;1.80;;;8.10;99.90;;;;;;10389120;28;20472;-62
2022/02/01 20:58:49;;;;;;;6.78;2.05;;;8.00;99.90;;;;;;10387544;28;20129;-61
2022/02/01 21:03:50;;;;;;;5.13;1.13;;;7.90;99.90;;;;;;10386491;28;20130;-63
2022/02/01 21:08:52;;;;;;;9.55;1.98;;;8.10;99.90;;;;;;10387327;28;20076;-61
2022/02/01 21:14:14;;;;;;;9.10;1.50;;;8.00;99.90;;;;;;10386058;28;20068;-61
2022/02/01 21:19:16;;;;;;;5.63;0.73;;;7.90;99.90;;;;;;10386658;28;20073;-61
2022/02/01 21:24:18;;;;;;;2.80;0.93;;;7.80;99.90;;;;;;10383981;28;20045;-62
2022/02/01 21:29:20;;;;;;;5.00;1.77;;;7.80;99.90;;;;;;10376091;28;20057;-61
2022/02/01 21:34:22;;;;;;;11.48;1.30;;;7.80;99.90;;;;;;10390565;28;20142;-60
2022/02/01 21:39:23;;;;;;;7.00;1.15;;;7.90;99.90;;;;;;10383152;28;20085;-62
2022/02/01 21:44:25;;;;;;;7.13;1.30;;;8.00;99.90;;;;;;10380352;28;20041;-61
2022/02/01 21:49:27;;;;;;;5.05;0.90;;;8.10;99.90;;;;;;10384371;28;20107;-62
2022/02/01 21:54:29;;;;;;;7.05;0.70;;;7.90;99.90;;;;;;10385254;28;20619;-61
2022/02/01 21:59:32;;;;;;;6.63;0.68;;;7.80;99.90;;;;;;10383389;28;20085;-62
2022/02/01 22:04:34;;;;;;;8.60;1.02;;;7.80;99.90;;;;;;10388487;28;20077;-62
2022/02/01 22:09:36;;;;;;;8.13;1.00;;;7.80;99.90;;;;;;10384794;28;20045;-61
2022/02/01 22:14:38;;;;;;;10.40;1.15;;;7.80;99.90;;;;;;10389218;28;20040;-61
2022/02/01 22:19:40;;;;;;;14.90;1.30;;;7.80;99.90;;;;;;10377705;28;20518;-61
2022/02/01 22:24:42;;;;;;;14.68;0.70;;;8.00;99.90;;;;;;10385605;28;20061;-61
2022/02/01 22:29:43;;;;;;;5.55;0.50;;;7.70;99.90;;;;;;10387877;28;20053;-61
2022/02/01 22:34:45;;;;;;;4.38;0.47;;;7.70;99.90;;;;;;10382503;28;20060;-62
2022/02/01 22:39:50;;;;;;;16.17;2.20;;;7.70;99.90;;;;;;10382798;28;20041;-60
2022/02/01 22:44:51;;;;;;;5.32;0.57;;;7.90;99.90;;;;;;10379196;28;20053;-63
2022/02/01 22:49:54;;;;;;;9.88;0.70;;;7.80;99.90;;;;;;10384443;28;20545;-63
2022/02/01 22:54:56;;;;;;;6.60;1.30;;;8.00;99.90;;;;;;10378493;28;20078;-62
2022/02/01 22:59:58;;;;;;;8.73;0.80;;;8.20;99.90;;;;;;10383600;28;20084;-62
2022/02/01 23:04:59;;;;;;;8.40;1.08;;;8.20;99.90;;;;;;10387536;28;20084;-61
2022/02/01 23:10:11;;;;;;;3.55;1.00;;;8.40;99.90;;;;;;10381355;28;20076;-60
2022/02/01 23:20:33;;;;;;;7.82;0.50;;;7.10;99.90;;;;;;10382846;28;20045;-61
2022/02/01 23:25:37;;;;;;;7.70;0.95;;;6.80;99.90;;;;;;10361759;28;20077;-61
2022/02/01 23:30:38;;;;;;;5.65;0.65;;;6.60;99.90;;;;;;10355456;28;20487;-63
2022/02/01 23:35:56;;;;;;;7.40;0.70;;;6.50;99.90;;;;;;10377144;28;20882;-63
2022/02/01 23:51:32;;;;;;;8.52;0.70;;;6.60;99.90;;;;;;10375599;28;20504;-62
2022/02/01 23:56:40;;;;;;;7.05;0.70;;;6.80;99.90;;;;;;10378794;28;20093;-62
